Time;durP1;ratioP1;P1;durP2;ratioP2;P2;SDS_P1;SDS_P2;PMS_P1;PMS_P2;Temp;Humidity;BMP_temperature;BMP_pressure;BME280_temperature;BME280_humidity;BME280_pressure;Samples;Min_cycle;Max_cycle;Signal;HPM_P1;HPM_P2
2022/07/20 00:00:06;;;;;;;7.53;2.97;;;;;26.00;100736.00;;;;10389894;28;20264;-79
2022/07/20 00:05:11;;;;;;;10.77;3.17;;;;;25.80;100752.00;;;;10451728;28;20288;-79
2022/07/20 00:15:33;;;;;;;15.38;8.77;;;;;26.10;100776.00;;;;10445629;28;20193;-78
2022/07/20 00:20:36;;;;;;;17.13;9.35;;;;;26.50;100790.00;;;;10447100;28;20610;-78
2022/07/20 00:25:38;;;;;;;14.18;9.45;;;;;26.50;100812.00;;;;10463696;28;20174;-78
2022/07/20 00:30:42;;;;;;;14.20;11.35;;;;;26.40;100818.00;;;;10478092;28;20235;-78
2022/07/20 00:35:44;;;;;;;26.88;13.63;;;;;26.20;100821.00;;;;10388954;28;20645;-78
2022/07/20 00:40:46;;;;;;;18.52;13.50;;;;;26.10;100835.00;;;;10422184;28;20218;-76
2022/07/20 00:45:48;;;;;;;21.42;13.60;;;;;25.90;100831.00;;;;10431178;28;20285;-76
2022/07/20 00:50:50;;;;;;;24.67;13.88;;;;;25.70;100835.00;;;;10426793;28;20181;-77
2022/07/20 00:55:52;;;;;;;20.58;14.60;;;;;25.50;100851.00;;;;10445529;28;20216;-77
2022/07/20 01:00:54;;;;;;;26.65;15.38;;;;;25.40;100837.00;;;;10450818;28;20668;-76
2022/07/20 01:05:56;;;;;;;27.98;18.55;;;;;25.20;100852.00;;;;10477351;28;20202;-76
2022/07/20 01:10:58;;;;;;;25.00;18.80;;;;;25.00;100861.00;;;;10445167;28;20547;-76
2022/07/20 01:16:00;;;;;;;24.30;17.65;;;;;24.70;100861.00;;;;10494319;28;20185;-76
2022/07/20 01:21:04;;;;;;;24.23;19.25;;;;;24.50;100856.00;;;;10476774;28;20220;-77
2022/07/20 01:26:07;;;;;;;31.05;20.75;;;;;24.40;100863.00;;;;10444164;28;20255;-76
2022/07/20 01:31:09;;;;;;;24.67;19.33;;;;;24.20;100866.00;;;;10460217;28;20189;-76
2022/07/20 01:36:11;;;;;;;30.48;20.65;;;;;24.10;100864.00;;;;10478147;28;20196;-76
2022/07/20 01:41:13;;;;;;;27.00;19.55;;;;;24.00;100872.00;;;;10426104;28;20568;-77
2022/07/20 01:46:15;;;;;;;26.92;20.77;;;;;23.90;100895.00;;;;10441846;28;20277;-76
2022/07/20 01:51:17;;;;;;;30.02;21.35;;;;;23.80;100884.00;;;;10476384;28;20648;-76
2022/07/20 01:56:19;;;;;;;30.60;22.02;;;;;23.70;100888.00;;;;10441865;28;20212;-76
2022/07/20 02:01:21;;;;;;;26.63;20.75;;;;;23.60;100896.00;;;;10468031;28;20768;-76
2022/07/20 02:06:23;;;;;;;25.27;20.33;;;;;23.50;100896.00;;;;10468030;28;20292;-76
2022/07/20 02:11:25;;;;;;;28.88;22.00;;;;;23.50;100902.00;;;;10455435;28;20236;-76
2022/07/20 02:16:27;;;;;;;32.45;22.05;;;;;23.40;100897.00;;;;10485053;28;20201;-76
2022/07/20 02:21:29;;;;;;;32.42;22.55;;;;;23.30;100899.00;;;;10451013;28;20221;-75
2022/07/20 02:26:31;;;;;;;29.02;23.55;;;;;23.30;100890.00;;;;10466829;28;20194;-76
2022/07/20 02:31:33;;;;;;;33.75;23.42;;;;;23.20;100900.00;;;;10459877;28;20303;-76
2022/07/20 02:36:36;;;;;;;31.17;23.05;;;;;23.10;100908.00;;;;10442526;28;20653;-76
2022/07/20 02:41:38;;;;;;;31.30;23.75;;;;;23.10;100922.00;;;;10471645;28;20626;-76
2022/07/20 02:46:40;;;;;;;27.08;22.42;;;;;23.20;100925.00;;;;10441203;28;20294;-76
2022/07/20 02:51:42;;;;;;;28.52;22.23;;;;;23.20;100948.00;;;;10483243;28;20251;-76
2022/07/20 02:56:44;;;;;;;31.67;22.67;;;;;23.20;100946.00;;;;10465553;28;20209;-76
2022/07/20 03:01:46;;;;;;;29.67;24.17;;;;;23.10;100947.00;;;;10432905;28;20696;-76
2022/07/20 03:06:48;;;;;;;30.73;23.92;;;;;23.10;100956.00;;;;10440499;28;20193;-76
2022/07/20 03:11:50;;;;;;;32.70;25.70;;;;;23.00;100968.00;;;;10447874;28;20541;-76
2022/07/20 03:16:52;;;;;;;32.40;24.70;;;;;22.90;100951.00;;;;10465387;28;20216;-76
2022/07/20 03:21:55;;;;;;;32.55;24.35;;;;;22.90;100965.00;;;;10464986;28;20221;-76
2022/07/20 03:26:57;;;;;;;30.85;22.67;;;;;22.80;100971.00;;;;10465620;28;20178;-76
2022/07/20 03:31:59;;;;;;;31.63;23.25;;;;;22.80;100979.00;;;;10470483;28;20277;-76
2022/07/20 03:37:01;;;;;;;29.38;22.35;;;;;22.70;100970.00;;;;10433988;28;20189;-76
2022/07/20 03:42:03;;;;;;;33.50;22.77;;;;;22.70;100968.00;;;;10447469;28;20222;-76
2022/07/20 03:47:05;;;;;;;31.45;21.17;;;;;22.70;100981.00;;;;10434228;28;20289;-76
2022/07/20 03:52:07;;;;;;;31.02;21.23;;;;;22.60;100987.00;;;;10458749;28;20641;-76
2022/07/20 03:57:09;;;;;;;23.10;20.17;;;;;22.50;100972.00;;;;10480414;28;20197;-76
2022/07/20 04:02:11;;;;;;;24.95;19.80;;;;;22.50;100983.00;;;;10456694;28;20218;-75
2022/07/20 04:07:20;;;;;;;27.77;19.85;;;;;22.50;101004.00;;;;10391366;28;20198;-76
2022/07/20 04:12:24;;;;;;;25.35;19.50;;;;;22.40;101002.00;;;;10422157;28;20549;-76
2022/07/20 04:17:26;;;;;;;25.30;17.00;;;;;22.40;101006.00;;;;10428487;28;20202;-76
2022/07/20 04:22:29;;;;;;;25.67;18.63;;;;;22.40;101013.00;;;;10462159;28;20214;-77
2022/07/20 04:27:31;;;;;;;27.58;18.52;;;;;22.40;101019.00;;;;10430645;28;20204;-76
2022/07/20 04:32:33;;;;;;;22.60;17.58;;;;;22.50;101018.00;;;;10432044;28;20214;-77
2022/07/20 04:37:36;;;;;;;28.27;17.85;;;;;22.60;101016.00;;;;10463024;28;20197;-77
2022/07/20 04:42:38;;;;;;;23.23;18.30;;;;;22.80;101019.00;;;;10472747;28;20959;-76
2022/07/20 04:47:40;;;;;;;21.60;16.88;;;;;22.90;101034.00;;;;10445459;28;20674;-76
2022/07/20 04:52:42;;;;;;;22.45;17.30;;;;;22.90;101045.00;;;;10446524;28;20181;-77
2022/07/20 04:57:44;;;;;;;23.98;17.40;;;;;23.10;101063.00;;;;10462633;28;20197;-77
2022/07/20 05:02:46;;;;;;;22.35;16.23;;;;;23.20;101067.00;;;;10431030;28;20205;-75
2022/07/20 05:07:48;;;;;;;20.90;16.17;;;;;23.40;101074.00;;;;10479449;28;20197;-77
2022/07/20 05:12:50;;;;;;;24.42;15.30;;;;;23.60;101085.00;;;;10478423;28;20202;-77
2022/07/20 05:17:53;;;;;;;21.63;15.77;;;;;23.70;101094.00;;;;10492718;28;20197;-74
2022/07/20 05:22:55;;;;;;;22.92;14.02;;;;;24.00;101117.00;;;;10454193;28;20248;-75
2022/07/20 05:27:57;;;;;;;19.13;14.00;;;;;24.50;101132.00;;;;10450289;28;20204;-75
2022/07/20 05:32:59;;;;;;;18.73;13.48;;;;;24.90;101156.00;;;;10481763;28;20702;-75
2022/07/20 05:38:01;;;;;;;20.02;14.27;;;;;25.30;101195.00;;;;10410750;28;20273;-75
2022/07/20 05:43:03;;;;;;;21.23;15.10;;;;;25.50;101207.00;;;;10492963;28;20244;-75
2022/07/20 05:48:06;;;;;;;17.50;12.93;;;;;25.70;101195.00;;;;10491809;28;20208;-75
2022/07/20 05:53:08;;;;;;;20.13;14.00;;;;;26.10;101221.00;;;;10418478;28;20273;-75
2022/07/20 05:58:10;;;;;;;18.30;14.00;;;;;26.40;101233.00;;;;10418180;28;20256;-75
2022/07/20 06:03:12;;;;;;;17.75;13.43;;;;;26.60;101232.00;;;;10431674;28;20233;-75
2022/07/20 06:08:14;;;;;;;17.55;12.65;;;;;26.80;101218.00;;;;10426773;28;20193;-75
2022/07/20 06:13:16;;;;;;;19.73;12.77;;;;;27.00;101224.00;;;;10426552;28;20182;-75
2022/07/20 06:18:18;;;;;;;20.13;11.77;;;;;26.90;101216.00;;;;10431538;28;20217;-75
2022/07/20 06:23:23;;;;;;;14.90;11.35;;;;;26.60;101232.00;;;;10450397;28;20222;-75
2022/07/20 06:28:25;;;;;;;19.05;11.80;;;;;26.10;101245.00;;;;10417500;28;20190;-75
2022/07/20 06:33:27;;;;;;;16.90;11.80;;;;;25.80;101260.00;;;;10445562;28;20185;-74
2022/07/20 06:38:29;;;;;;;16.05;11.30;;;;;25.80;101276.00;;;;10455097;28;20255;-75
2022/07/20 06:43:31;;;;;;;19.80;10.65;;;;;25.70;101306.00;;;;10476729;28;20213;-76
2022/07/20 06:48:36;;;;;;;16.70;10.85;;;;;25.70;101316.00;;;;10500366;28;20239;-75
2022/07/20 06:53:38;;;;;;;19.50;11.48;;;;;25.80;101306.00;;;;10449278;28;20204;-75
2022/07/20 06:58:41;;;;;;;22.48;10.25;;;;;25.90;101298.00;;;;10482451;28;20203;-75
2022/07/20 07:03:43;;;;;;;13.05;9.93;;;;;26.30;101325.00;;;;10480561;28;20245;-74
2022/07/20 07:08:45;;;;;;;18.10;9.45;;;;;26.70;101274.00;;;;10465242;28;20190;-75
2022/07/20 07:13:49;;;;;;;17.30;8.75;;;;;26.50;101237.00;;;;10465782;28;20189;-75
2022/07/20 07:18:52;;;;;;;14.73;8.20;;;;;26.20;101222.00;;;;10448661;28;20189;-75
2022/07/20 07:23:55;;;;;;;12.43;7.72;;;;;25.70;101192.00;;;;10428466;28;20221;-75
2022/07/20 07:28:57;;;;;;;12.27;6.75;;;;;25.20;101176.00;;;;10460713;28;20194;-75
2022/07/20 07:34:04;;;;;;;12.68;7.35;;;;;24.70;101189.00;;;;10440560;28;20186;-78
2022/07/20 07:39:06;;;;;;;10.52;6.82;;;;;24.20;101067.00;;;;10411167;28;20241;-78
2022/07/20 07:44:09;;;;;;;22.88;9.35;;;;;23.80;101150.00;;;;10433069;28;20237;-81
2022/07/20 07:49:11;;;;;;;12.27;8.02;;;;;23.80;101213.00;;;;10417712;28;20281;-79
2022/07/20 07:54:13;;;;;;;12.05;8.27;;;;;23.70;101244.00;;;;10447353;28;20201;-80
2022/07/20 07:59:15;;;;;;;11.27;8.10;;;;;24.70;101208.00;;;;10447711;28;20221;-79
2022/07/20 08:04:35;;;;;;;13.55;8.25;;;;;26.10;101231.00;;;;10440616;28;20204;-79
2022/07/20 08:09:37;;;;;;;11.48;7.45;;;;;25.90;101262.00;;;;10426376;28;20277;-79
2022/07/20 08:14:39;;;;;;;13.90;7.30;;;;;26.10;101281.00;;;;10464480;28;20177;-80
2022/07/20 08:19:41;;;;;;;11.40;7.10;;;;;25.40;101314.00;;;;10438015;28;20198;-80
2022/07/20 08:24:43;;;;;;;10.10;7.13;;;;;24.40;101272.00;;;;10467984;28;20198;-80
2022/07/20 08:29:45;;;;;;;12.45;7.82;;;;;24.00;101280.00;;;;10440029;28;20280;-81
2022/07/20 08:34:47;;;;;;;16.00;7.90;;;;;24.60;101286.00;;;;10419220;28;20284;-80
2022/07/20 08:39:49;;;;;;;11.85;7.82;;;;;23.90;101271.00;;;;10418647;28;20340;-79
2022/07/20 08:44:51;;;;;;;10.05;7.78;;;;;24.60;101293.00;;;;10441006;28;20201;-80
2022/07/20 08:49:53;;;;;;;10.50;8.30;;;;;24.80;101326.00;;;;10437506;28;20197;-80
2022/07/20 08:54:55;;;;;;;10.80;7.88;;;;;24.00;101334.00;;;;10437486;28;20189;-80
2022/07/20 08:59:57;;;;;;;11.98;8.32;;;;;24.00;101351.00;;;;10419121;28;20226;-80
2022/07/20 09:05:01;;;;;;;15.02;8.85;;;;;24.30;101335.00;;;;10457518;28;20288;-80
2022/07/20 09:10:06;;;;;;;11.95;8.00;;;;;25.50;101330.00;;;;10428124;28;20197;-80
2022/07/20 09:15:24;;;;;;;11.32;8.05;;;;;27.40;101326.00;;;;10465775;28;20524;-80
2022/07/20 09:20:29;;;;;;;12.52;8.15;;;;;26.80;101364.00;;;;10459439;28;20727;-80
2022/07/20 09:25:32;;;;;;;11.27;8.63;;;;;25.60;101366.00;;;;10428643;28;20181;-80
2022/07/20 09:30:34;;;;;;;14.45;9.27;;;;;24.60;101348.00;;;;10405863;28;20711;-80
2022/07/20 09:35:36;;;;;;;16.85;10.00;;;;;23.20;101337.00;;;;10427618;28;20205;-80
2022/07/20 09:40:43;;;;;;;15.85;11.23;;;;;22.40;101368.00;;;;10421397;28;20900;-81
2022/07/20 09:45:45;;;;;;;19.10;12.20;;;;;22.70;101361.00;;;;10389622;28;20197;-80
2022/07/20 09:50:47;;;;;;;20.55;11.45;;;;;23.00;101363.00;;;;10421823;28;20577;-80
2022/07/20 09:55:52;;;;;;;15.13;11.32;;;;;23.10;101326.00;;;;10421435;28;20205;-80
2022/07/20 10:00:54;;;;;;;18.73;11.70;;;;;24.40;101318.00;;;;10418948;28;20692;-79
2022/07/20 10:05:56;;;;;;;11.23;10.07;;;;;26.20;101331.00;;;;10444242;28;20284;-80
2022/07/20 10:10:58;;;;;;;13.43;9.77;;;;;26.60;101352.00;;;;10442998;28;20640;-80
2022/07/20 10:16:14;;;;;;;16.13;11.48;;;;;27.40;101341.00;;;;10423011;28;20562;-78
2022/07/20 10:21:35;;;;;;;14.23;10.68;;;;;29.10;101328.00;;;;10465923;28;20205;-79
2022/07/20 10:26:37;;;;;;;15.30;10.55;;;;;29.80;101324.00;;;;10461865;28;20204;-80
2022/07/20 10:31:53;;;;;;;13.27;9.38;;;;;29.70;101331.00;;;;10436083;28;20190;-80
2022/07/20 10:37:20;;;;;;;14.30;10.40;;;;;30.20;101341.00;;;;10472237;28;20205;-80
2022/07/20 10:42:30;;;;;;;13.70;10.80;;;;;30.90;101333.00;;;;10413963;28;20276;-80
2022/07/20 10:47:52;;;;;;;10.10;8.10;;;;;30.30;101329.00;;;;10460453;28;20258;-80
2022/07/20 10:52:57;;;;;;;10.35;7.50;;;;;29.50;101330.00;;;;10429231;28;20198;-80
2022/07/20 10:58:14;;;;;;;9.82;7.35;;;;;31.60;101321.00;;;;10449293;28;20285;-81
2022/07/20 11:03:27;;;;;;;8.30;6.68;;;;;32.30;101314.00;;;;10417146;28;20300;-81
2022/07/20 11:08:30;;;;;;;9.70;7.00;;;;;32.80;101325.00;;;;10459014;28;20208;-81
2022/07/20 11:13:32;;;;;;;8.32;6.20;;;;;32.70;101326.00;;;;10427140;28;20186;-80
2022/07/20 11:18:35;;;;;;;10.10;6.78;;;;;32.40;101344.00;;;;10422732;28;20227;-80
2022/07/20 11:23:46;;;;;;;6.75;6.03;;;;;32.70;101345.00;;;;10430929;28;20214;-80
2022/07/20 11:28:57;;;;;;;9.95;5.85;;;;;32.80;101317.00;;;;10456787;28;20205;-80
2022/07/20 11:33:59;;;;;;;7.03;6.30;;;;;32.50;101346.00;;;;10447284;28;20178;-80
2022/07/20 11:39:05;;;;;;;6.75;6.10;;;;;30.90;101345.00;;;;10481981;28;20277;-80
2022/07/20 11:44:18;;;;;;;8.02;6.60;;;;;30.80;101355.00;;;;10482612;28;20743;-80
2022/07/20 11:49:20;;;;;;;6.57;5.88;;;;;31.90;101339.00;;;;10442202;28;20647;-80
2022/07/20 11:54:35;;;;;;;8.68;6.78;;;;;32.50;101333.00;;;;10414366;28;20186;-80
2022/07/20 11:59:44;;;;;;;7.50;6.80;;;;;31.50;101332.00;;;;10441937;28;20288;-79
2022/07/20 12:04:46;;;;;;;8.07;6.60;;;;;30.60;101342.00;;;;10428361;28;20209;-79
2022/07/20 12:09:48;;;;;;;8.70;7.00;;;;;30.50;101372.00;;;;10461299;28;20691;-79
2022/07/20 12:14:50;;;;;;;11.95;7.70;;;;;30.80;101363.00;;;;10431247;28;20649;-80
2022/07/20 12:19:59;;;;;;;8.52;7.18;;;;;31.30;101342.00;;;;10477851;28;20197;-79
2022/07/20 12:25:06;;;;;;;9.75;7.70;;;;;32.20;101347.00;;;;10481219;28;20674;-79
2022/07/20 12:30:29;;;;;;;9.80;7.65;;;;;31.80;101347.00;;;;10407915;28;20217;-79
2022/07/20 12:35:32;;;;;;;15.90;8.75;;;;;30.40;101327.00;;;;10440411;28;20240;-79
2022/07/20 12:40:37;;;;;;;13.98;7.90;;;;;30.20;101340.00;;;;10404269;28;20207;-80
2022/07/20 12:45:39;;;;;;;12.00;9.02;;;;;28.70;101308.00;;;;10430532;28;20237;-79
2022/07/20 12:50:41;;;;;;;11.40;7.57;;;;;27.70;101337.00;;;;10439868;28;20206;-79
2022/07/20 12:55:44;;;;;;;12.02;9.25;;;;;27.20;101374.00;;;;10429038;28;20190;-79
2022/07/20 13:00:46;;;;;;;12.48;9.05;;;;;26.30;101383.00;;;;10449241;28;20329;-77
2022/07/20 13:05:49;;;;;;;15.00;10.40;;;;;25.20;101363.00;;;;10450987;28;20190;-81
2022/07/20 13:10:52;;;;;;;13.88;11.07;;;;;25.10;101363.00;;;;10427740;28;20244;-80
2022/07/20 13:15:54;;;;;;;15.32;11.50;;;;;25.40;101366.00;;;;10431489;28;20830;-81
2022/07/20 13:20:56;;;;;;;12.70;11.23;;;;;26.30;101367.00;;;;10445459;28;20632;-80
2022/07/20 13:25:58;;;;;;;13.48;11.10;;;;;26.50;101364.00;;;;10437524;28;20194;-80
2022/07/20 13:31:08;;;;;;;15.10;11.23;;;;;26.50;101361.00;;;;10424295;28;20182;-80
2022/07/20 13:36:30;;;;;;;14.23;11.40;;;;;26.50;101380.00;;;;10414119;28;20257;-80
2022/07/20 13:41:32;;;;;;;15.90;10.38;;;;;26.40;101378.00;;;;10403604;28;20228;-79
2022/07/20 13:46:34;;;;;;;15.85;11.80;;;;;26.30;101390.00;;;;10428637;28;20197;-80
2022/07/20 13:51:36;;;;;;;12.45;11.15;;;;;26.70;101377.00;;;;10444738;28;20197;-80
2022/07/20 13:56:58;;;;;;;11.57;9.75;;;;;28.20;101396.00;;;;10447923;28;20193;-79
2022/07/20 14:02:00;;;;;;;11.05;9.52;;;;;28.10;101391.00;;;;10421690;28;20272;-80
2022/07/20 14:07:02;;;;;;;14.40;10.80;;;;;27.80;101391.00;;;;10479868;28;20198;-80
2022/07/20 14:12:05;;;;;;;11.15;10.05;;;;;27.60;101377.00;;;;10430660;28;20204;-79
2022/07/20 14:17:09;;;;;;;13.20;10.02;;;;;29.00;101370.00;;;;10466650;28;20268;-79
2022/07/20 14:22:12;;;;;;;9.88;8.95;;;;;30.50;101382.00;;;;10423494;28;20226;-79
2022/07/20 14:27:14;;;;;;;16.48;10.52;;;;;29.40;101383.00;;;;10453875;28;20725;-80
2022/07/20 14:32:17;;;;;;;13.00;9.63;;;;;28.30;101365.00;;;;10429880;28;20186;-80
2022/07/20 14:37:19;;;;;;;13.45;11.27;;;;;27.80;101368.00;;;;10452906;28;20194;-80
2022/07/20 14:42:21;;;;;;;11.48;10.23;;;;;27.40;101377.00;;;;10442948;28;20252;-80
2022/07/20 14:47:23;;;;;;;10.82;9.68;;;;;27.10;101375.00;;;;10464933;28;20201;-80
2022/07/20 14:52:27;;;;;;;12.35;9.93;;;;;26.50;101385.00;;;;10417171;28;20266;-80
2022/07/20 14:57:29;;;;;;;12.43;10.48;;;;;26.50;101380.00;;;;10437956;28;20248;-80
2022/07/20 15:02:31;;;;;;;14.35;10.90;;;;;25.80;101385.00;;;;10451026;28;20320;-80
2022/07/20 15:07:35;;;;;;;14.30;11.10;;;;;25.10;101372.00;;;;10452686;28;20556;-80
2022/07/20 15:12:37;;;;;;;14.48;10.70;;;;;24.80;101370.00;;;;10467201;28;20192;-80
2022/07/20 15:17:40;;;;;;;13.30;11.70;;;;;25.10;101355.00;;;;10448320;28;20276;-80
2022/07/20 15:22:42;;;;;;;12.70;11.40;;;;;25.40;101364.00;;;;10458878;28;20575;-80
2022/07/20 15:27:45;;;;;;;13.85;10.75;;;;;25.40;101375.00;;;;10431654;28;20197;-80
2022/07/20 15:32:47;;;;;;;13.60;10.60;;;;;25.50;101375.00;;;;10438433;28;20202;-79
2022/07/20 15:37:49;;;;;;;13.52;9.95;;;;;25.40;101382.00;;;;10423773;28;20217;-79
2022/07/20 15:42:51;;;;;;;11.65;10.45;;;;;25.60;101380.00;;;;10446235;28;20695;-79
2022/07/20 15:47:56;;;;;;;11.88;10.57;;;;;25.70;101389.00;;;;10445677;28;20194;-79
2022/07/20 15:52:58;;;;;;;11.80;10.50;;;;;25.70;101373.00;;;;10419879;28;20197;-79
2022/07/20 15:58:01;;;;;;;15.75;12.73;;;;;25.60;101381.00;;;;10441793;28;20668;-79
2022/07/20 16:03:03;;;;;;;14.00;12.52;;;;;25.30;101385.00;;;;10440615;28;20268;-79
2022/07/20 16:08:06;;;;;;;15.88;11.95;;;;;24.90;101380.00;;;;10411464;28;20190;-79
2022/07/20 16:13:08;;;;;;;13.20;11.77;;;;;24.60;101356.00;;;;10456000;28;20289;-79
2022/07/20 16:18:12;;;;;;;12.98;11.55;;;;;24.50;101340.00;;;;10410854;28;20233;-79
2022/07/20 16:23:14;;;;;;;14.10;12.57;;;;;24.30;101320.00;;;;10427236;28;20270;-79
2022/07/20 16:28:17;;;;;;;12.95;11.75;;;;;24.00;101318.00;;;;10433897;28;20190;-79
2022/07/20 16:33:19;;;;;;;14.60;12.35;;;;;23.70;101312.00;;;;10426141;28;20256;-79
2022/07/20 16:38:24;;;;;;;15.30;13.68;;;;;23.50;101296.00;;;;10444656;28;20822;-79
2022/07/20 16:43:42;;;;;;;14.60;13.10;;;;;23.30;101267.00;;;;10420053;28;20210;-79
2022/07/20 16:48:44;;;;;;;15.60;13.23;;;;;23.30;101307.00;;;;10441736;28;20649;-79
2022/07/20 16:53:46;;;;;;;14.20;12.80;;;;;23.20;101294.00;;;;10421995;28;20717;-79
2022/07/20 16:58:48;;;;;;;16.98;14.13;;;;;23.10;101296.00;;;;10402966;28;20736;-79
2022/07/20 17:03:51;;;;;;;16.60;14.50;;;;;23.00;101304.00;;;;10408995;28;20222;-79
2022/07/20 17:08:53;;;;;;;16.42;14.73;;;;;22.90;101277.00;;;;10399379;28;20186;-80
2022/07/20 17:13:56;;;;;;;17.92;15.98;;;;;23.00;101268.00;;;;10455499;28;20700;-79
2022/07/20 17:19:23;;;;;;;17.67;15.88;;;;;22.80;101260.00;;;;10461365;28;20717;-79
2022/07/20 17:24:23;;;;;;;16.88;15.13;;;;;22.70;101290.00;;;;10444778;28;20221;-79
2022/07/20 17:29:26;;;;;;;17.35;15.45;;;;;22.60;101322.00;;;;10460555;28;20715;-79
2022/07/20 17:34:27;;;;;;;22.05;16.95;;;;;22.40;101322.00;;;;10445046;28;20197;-79
2022/07/20 17:39:30;;;;;;;20.33;17.15;;;;;22.30;101341.00;;;;10428761;28;20198;-79
2022/07/20 17:44:32;;;;;;;19.70;17.73;;;;;22.00;101344.00;;;;10430761;28;20831;-79
2022/07/20 17:49:36;;;;;;;19.23;17.30;;;;;21.80;101349.00;;;;10462384;28;20189;-81
2022/07/20 17:54:38;;;;;;;20.75;18.55;;;;;21.80;101351.00;;;;10430377;28;20637;-81
2022/07/20 17:59:40;;;;;;;21.13;17.63;;;;;21.60;101332.00;;;;10428495;28;20236;-81
2022/07/20 18:04:42;;;;;;;21.05;16.83;;;;;21.40;101340.00;;;;10416424;28;20302;-81
2022/07/20 18:09:44;;;;;;;18.75;16.85;;;;;21.20;101325.00;;;;10462334;28;20193;-82
2022/07/20 18:14:46;;;;;;;19.40;15.82;;;;;20.90;101334.00;;;;10420857;28;20220;-82
2022/07/20 18:19:48;;;;;;;14.88;13.27;;;;;20.70;101375.00;;;;10404245;28;20595;-81
2022/07/20 18:24:50;;;;;;;12.82;10.48;;;;;20.50;101378.00;;;;10424707;28;20292;-81
2022/07/20 18:29:52;;;;;;;11.63;9.82;;;;;20.30;101366.00;;;;10429145;28;20204;-82
2022/07/20 18:34:54;;;;;;;11.82;9.98;;;;;20.10;101371.00;;;;10451500;28;20271;-81
2022/07/20 18:39:56;;;;;;;9.77;8.52;;;;;19.90;101349.00;;;;10447410;28;20200;-81
2022/07/20 18:45:00;;;;;;;10.48;8.02;;;;;19.90;101339.00;;;;10447529;28;20240;-82
2022/07/20 18:50:02;;;;;;;9.95;8.95;;;;;19.90;101356.00;;;;10483418;28;20224;-82
2022/07/20 18:55:07;;;;;;;10.27;9.20;;;;;19.80;101360.00;;;;10453066;28;20199;-82
2022/07/20 19:00:10;;;;;;;10.82;9.73;;;;;19.60;101336.00;;;;10466562;28;20217;-81
2022/07/20 19:05:12;;;;;;;12.80;9.30;;;;;19.50;101333.00;;;;10468450;28;20239;-83
2022/07/20 19:10:14;;;;;;;12.10;9.75;;;;;19.30;101321.00;;;;10467189;28;20221;-81
2022/07/20 19:15:16;;;;;;;10.05;8.95;;;;;19.20;101345.00;;;;10467363;28;20181;-81
2022/07/20 19:20:19;;;;;;;10.75;9.13;;;;;19.10;101380.00;;;;10461286;28;20204;-83
2022/07/20 19:25:21;;;;;;;10.98;9.55;;;;;18.90;101383.00;;;;10425613;28;20665;-82
2022/07/20 19:30:23;;;;;;;11.23;10.00;;;;;18.90;101386.00;;;;10404496;28;20553;-81
2022/07/20 19:35:27;;;;;;;15.32;10.77;;;;;18.80;101383.00;;;;10449991;28;20553;-81
2022/07/20 19:40:29;;;;;;;13.35;10.63;;;;;18.80;101397.00;;;;10450217;28;20197;-81
2022/07/20 19:45:31;;;;;;;16.95;11.10;;;;;18.80;101389.00;;;;10450367;28;20217;-81
2022/07/20 19:50:33;;;;;;;12.50;11.20;;;;;18.70;101390.00;;;;10460737;28;20201;-81
2022/07/20 19:55:43;;;;;;;12.25;11.05;;;;;18.70;101386.00;;;;10451383;28;20285;-81
2022/07/20 20:00:45;;;;;;;12.73;11.52;;;;;18.70;101392.00;;;;10476455;28;20292;-82
2022/07/20 20:05:48;;;;;;;13.60;12.18;;;;;18.70;101398.00;;;;10445619;28;20236;-83
2022/07/20 20:10:50;;;;;;;13.63;12.25;;;;;18.70;101384.00;;;;10434330;28;20198;-82
2022/07/20 20:15:52;;;;;;;13.30;11.90;;;;;18.70;101377.00;;;;10452901;28;20178;-82
2022/07/20 20:20:54;;;;;;;13.52;12.15;;;;;18.60;101380.00;;;;10400773;28;20232;-81
2022/07/20 20:25:56;;;;;;;13.57;10.40;;;;;18.60;101372.00;;;;10420591;28;20229;-81
2022/07/20 20:30:58;;;;;;;11.93;9.68;;;;;18.60;101373.00;;;;10437994;28;20187;-81
2022/07/20 20:36:01;;;;;;;12.55;8.88;;;;;18.50;101376.00;;;;10425998;28;20297;-81
2022/07/20 20:41:03;;;;;;;9.38;8.38;;;;;18.50;101357.00;;;;10431251;28;20198;-81
2022/07/20 20:46:08;;;;;;;9.35;8.35;;;;;18.40;101374.00;;;;10452347;28;20550;-82
2022/07/20 20:51:10;;;;;;;9.65;8.70;;;;;18.30;101372.00;;;;10401898;28;20315;-80
2022/07/20 20:56:12;;;;;;;10.30;8.05;;;;;18.30;101364.00;;;;10416266;28;20542;-81
2022/07/20 21:01:14;;;;;;;9.98;8.10;;;;;18.20;101355.00;;;;10445449;28;20219;-82
2022/07/20 21:06:20;;;;;;;11.93;7.95;;;;;18.20;101343.00;;;;10425981;28;20237;-81
2022/07/20 21:11:23;;;;;;;9.80;8.25;;;;;18.20;101340.00;;;;10437154;28;20192;-81
2022/07/20 21:16:26;;;;;;;12.30;9.13;;;;;18.20;101339.00;;;;10448314;28;20220;-81
2022/07/20 21:21:28;;;;;;;9.77;8.30;;;;;18.10;101349.00;;;;10401712;28;20205;-81
2022/07/20 21:26:31;;;;;;;9.02;8.05;;;;;18.10;101349.00;;;;10413931;28;20273;-79
2022/07/20 21:31:33;;;;;;;12.75;9.50;;;;;18.10;101334.00;;;;10408097;28;20230;-80
2022/07/20 21:36:42;;;;;;;10.90;8.95;;;;;18.10;101336.00;;;;10443561;28;20196;-79
2022/07/20 21:41:43;;;;;;;10.52;8.80;;;;;18.00;101344.00;;;;10440216;28;20201;-80
2022/07/20 21:46:46;;;;;;;9.32;8.43;;;;;18.00;101352.00;;;;10407420;28;20194;-80
2022/07/20 21:51:49;;;;;;;10.30;9.20;;;;;18.00;101359.00;;;;10439461;28;20896;-80
2022/07/20 21:56:51;;;;;;;11.45;9.32;;;;;18.00;101365.00;;;;10411868;28;20678;-80
2022/07/20 22:01:53;;;;;;;12.88;9.25;;;;;18.00;101368.00;;;;10426535;28;20231;-81
2022/07/20 22:06:55;;;;;;;13.35;10.05;;;;;17.90;101366.00;;;;10438848;28;20267;-83
2022/07/20 22:11:57;;;;;;;12.98;9.82;;;;;17.90;101380.00;;;;10435256;28;20209;-82
2022/07/20 22:17:06;;;;;;;11.90;10.10;;;;;17.90;101380.00;;;;10453069;28;20850;-83
2022/07/20 22:22:08;;;;;;;11.77;10.57;;;;;17.90;101379.00;;;;10451839;28;20215;-83
2022/07/20 22:27:10;;;;;;;15.02;10.90;;;;;17.90;101377.00;;;;10435135;28;20224;-82
2022/07/20 22:32:12;;;;;;;12.38;11.07;;;;;17.90;101384.00;;;;10452371;28;20239;-83
2022/07/20 22:37:15;;;;;;;13.23;11.60;;;;;17.80;101389.00;;;;10468929;28;20239;-83
2022/07/20 22:42:17;;;;;;;14.88;12.02;;;;;17.80;101377.00;;;;10443050;28;20268;-83
2022/07/20 22:47:19;;;;;;;15.43;12.63;;;;;17.70;101372.00;;;;10417203;28;20732;-83
2022/07/20 22:52:21;;;;;;;13.75;12.35;;;;;17.70;101372.00;;;;10433916;28;20225;-83
2022/07/20 22:57:41;;;;;;;15.73;13.17;;;;;17.70;101368.00;;;;10451657;28;20207;-82
2022/07/20 23:02:49;;;;;;;15.10;13.50;;;;;17.70;101364.00;;;;10450649;28;20255;-83
2022/07/20 23:07:57;;;;;;;15.23;13.73;;;;;17.70;101362.00;;;;10449394;28;20216;-82
2022/07/20 23:13:00;;;;;;;16.48;14.10;;;;;17.70;101343.00;;;;10482994;28;20181;-83
2022/07/20 23:18:02;;;;;;;16.17;14.43;;;;;17.70;101347.00;;;;10465994;28;20190;-83
2022/07/20 23:23:04;;;;;;;15.13;13.73;;;;;17.70;101343.00;;;;10452076;28;20267;-82
2022/07/20 23:28:06;;;;;;;17.05;15.20;;;;;17.80;101338.00;;;;10457206;28;20652;-83
2022/07/20 23:33:08;;;;;;;15.97;14.47;;;;;17.80;101340.00;;;;10428483;28;20271;-82
2022/07/20 23:38:10;;;;;;;15.45;13.73;;;;;17.90;101340.00;;;;10465256;28;20189;-83
2022/07/20 23:43:12;;;;;;;17.75;15.85;;;;;17.90;101333.00;;;;10449763;28;20676;-83
2022/07/20 23:48:15;;;;;;;19.35;17.45;;;;;17.90;101324.00;;;;10465342;28;20173;-82
2022/07/20 23:53:17;;;;;;;23.65;17.90;;;;;18.00;101323.00;;;;10448469;28;20212;-83
2022/07/20 23:58:19;;;;;;;19.80;17.80;;;;;18.00;101317.00;;;;10462346;28;20201;-82
